createdAt,value
2017-01-28T00:00:44.874Z,0
2017-01-28T00:01:55.336Z,0
2017-01-28T00:03:06.134Z,0
2017-01-28T00:04:15.306Z,0
2017-01-28T00:05:24.443Z,0
2017-01-28T00:06:35.347Z,0
2017-01-28T00:07:44.467Z,0
2017-01-28T00:08:53.910Z,0
2017-01-28T00:10:03.510Z,0
2017-01-28T00:11:14.426Z,0
2017-01-28T00:12:24.920Z,0
2017-01-28T00:13:35.415Z,0
2017-01-28T00:14:46.939Z,0
2017-01-28T00:15:56.124Z,0
2017-01-28T00:17:05.626Z,0
2017-01-28T00:18:14.736Z,0
2017-01-28T00:19:23.854Z,0
2017-01-28T00:20:35.094Z,0
2017-01-28T00:21:45.638Z,0
2017-01-28T00:22:54.806Z,0
2017-01-28T00:24:04.342Z,0
2017-01-28T00:25:13.450Z,0
2017-01-28T00:26:22.839Z,0
2017-01-28T00:27:31.923Z,0
2017-01-28T00:28:41.840Z,0
2017-01-28T00:29:52.719Z,0
2017-01-28T00:31:03.205Z,0
2017-01-28T00:32:13.761Z,0
2017-01-28T00:33:22.855Z,0
2017-01-28T00:34:31.944Z,0
2017-01-28T00:35:41.055Z,0
2017-01-28T00:36:50.618Z,0
2017-01-28T00:38:00.144Z,0
2017-01-28T00:39:10.695Z,0
2017-01-28T00:40:22.679Z,0
2017-01-28T00:41:32.244Z,0
2017-01-28T00:42:41.364Z,0
2017-01-28T00:43:52.579Z,0
2017-01-28T00:45:02.509Z,0
2017-01-28T00:46:11.737Z,0
2017-01-28T00:47:22.710Z,0
2017-01-28T00:48:31.935Z,0
2017-01-28T00:49:42.786Z,0
2017-01-28T00:50:55.078Z,0
2017-01-28T00:52:04.289Z,0
2017-01-28T00:53:13.825Z,0
2017-01-28T00:54:24.412Z,0
2017-01-28T00:55:35.193Z,0
2017-01-28T00:56:45.692Z,0
2017-01-28T00:57:57.981Z,0
2017-01-28T00:59:08.891Z,0
2017-01-28T01:00:18.858Z,0
2017-01-28T01:01:28.375Z,0
2017-01-28T01:02:38.880Z,0
2017-01-28T01:03:49.386Z,0
2017-01-28T01:05:00.289Z,0
2017-01-28T01:06:11.194Z,0
2017-01-28T01:07:22.353Z,0
2017-01-28T01:08:31.921Z,0
2017-01-28T01:09:42.499Z,0
2017-01-28T01:10:53.824Z,0
2017-01-28T01:12:04.420Z,0
2017-01-28T01:13:15.239Z,0
2017-01-28T01:14:24.363Z,0
2017-01-28T01:15:33.887Z,0
2017-01-28T01:16:42.983Z,0
2017-01-28T01:17:53.525Z,0
2017-01-28T01:19:04.427Z,0
2017-01-28T01:20:17.791Z,0
2017-01-28T01:21:28.737Z,0
2017-01-28T01:22:40.616Z,0
2017-01-28T01:23:50.109Z,0
2017-01-28T01:24:59.457Z,0
2017-01-28T01:26:08.959Z,0
2017-01-28T01:27:19.841Z,0
2017-01-28T01:28:30.306Z,0
2017-01-28T01:29:39.397Z,0
2017-01-28T01:30:50.204Z,0
2017-01-28T01:32:00.692Z,0
2017-01-28T01:33:11.226Z,0
2017-01-28T01:34:20.329Z,0
2017-01-28T01:35:29.477Z,0
2017-01-28T01:36:41.970Z,0
2017-01-28T01:37:52.424Z,0
2017-01-28T01:39:01.579Z,0
2017-01-28T01:40:10.670Z,0
2017-01-28T01:41:19.748Z,0
2017-01-28T01:42:30.408Z,0
2017-01-28T01:43:39.502Z,0
2017-01-28T01:44:49.966Z,0
2017-01-28T01:46:00.497Z,0
2017-01-28T01:47:11.023Z,0
2017-01-28T01:48:20.824Z,0
2017-01-28T01:49:32.725Z,0
2017-01-28T01:50:43.198Z,0
2017-01-28T01:51:52.322Z,0
2017-01-28T01:53:04.152Z,0
2017-01-28T01:54:14.901Z,0
2017-01-28T01:55:23.978Z,0
2017-01-28T01:56:34.459Z,0
2017-01-28T01:57:45.340Z,0
2017-01-28T01:58:56.285Z,0
2017-01-28T02:00:10.000Z,0
2017-01-28T02:01:20.871Z,0
2017-01-28T02:02:30.395Z,0
2017-01-28T02:03:40.897Z,0
2017-01-28T02:04:49.988Z,0
2017-01-28T02:05:59.348Z,0
2017-01-28T02:07:09.780Z,0
2017-01-28T02:08:18.859Z,0
2017-01-28T02:09:27.935Z,0
2017-01-28T02:10:37.020Z,0
2017-01-28T02:11:46.823Z,0
2017-01-28T02:12:57.261Z,0
2017-01-28T02:14:07.235Z,0
2017-01-28T02:15:16.743Z,0
2017-01-28T02:16:27.214Z,0
2017-01-28T02:17:39.365Z,0
2017-01-28T02:18:49.861Z,0
2017-01-28T02:19:59.382Z,0
2017-01-28T02:21:10.266Z,0
2017-01-28T02:22:20.779Z,0
2017-01-28T02:23:30.107Z,0
2017-01-28T02:24:41.032Z,0
2017-01-28T02:25:50.961Z,0
2017-01-28T02:27:01.432Z,0
2017-01-28T02:28:11.933Z,0
2017-01-28T02:29:21.296Z,0
2017-01-28T02:30:31.184Z,0
2017-01-28T02:31:40.686Z,0
2017-01-28T02:32:50.201Z,0
2017-01-28T02:33:59.421Z,0
2017-01-28T02:35:10.154Z,0
2017-01-28T02:36:19.243Z,0
2017-01-28T02:37:28.343Z,0
2017-01-28T02:38:38.833Z,0
2017-01-28T02:39:48.723Z,0
2017-01-28T02:41:01.237Z,0
2017-01-28T02:42:10.740Z,0
2017-01-28T02:43:19.798Z,0
2017-01-28T02:44:28.876Z,0
2017-01-28T02:45:37.978Z,0
2017-01-28T02:46:47.295Z,0
2017-01-28T02:47:56.349Z,0
2017-01-28T02:49:07.222Z,0
2017-01-28T02:50:18.299Z,0
2017-01-28T02:51:28.792Z,0
2017-01-28T02:52:39.519Z,0
2017-01-28T02:53:50.910Z,0
2017-01-28T02:55:01.757Z,0
2017-01-28T02:56:11.240Z,0
2017-01-28T02:57:21.694Z,0
2017-01-28T02:58:31.418Z,0
2017-01-28T02:59:40.489Z,0
2017-01-28T03:00:49.578Z,0
2017-01-28T03:02:00.069Z,0
2017-01-28T03:03:09.163Z,0
2017-01-28T03:04:21.280Z,0
2017-01-28T03:05:30.771Z,0
2017-01-28T03:06:39.882Z,0
2017-01-28T03:07:48.969Z,0
2017-01-28T03:09:00.287Z,0
2017-01-28T03:10:11.553Z,0
2017-01-28T03:11:21.131Z,0
2017-01-28T03:12:31.009Z,0
2017-01-28T03:13:40.483Z,0
2017-01-28T03:14:50.026Z,0
2017-01-28T03:15:59.391Z,0
2017-01-28T03:17:08.907Z,0
2017-01-28T03:18:17.949Z,0
2017-01-28T03:19:29.875Z,0
2017-01-28T03:20:42.158Z,0
2017-01-28T03:21:52.852Z,0
2017-01-28T03:23:02.382Z,0
2017-01-28T03:24:11.525Z,0
2017-01-28T03:25:20.597Z,0
2017-01-28T03:26:29.857Z,0
2017-01-28T03:27:40.586Z,0
2017-01-28T03:28:51.087Z,0
2017-01-28T03:30:00.181Z,0
2017-01-28T03:31:09.662Z,0
2017-01-28T03:32:18.767Z,0
2017-01-28T03:33:29.519Z,0
2017-01-28T03:34:38.640Z,0
2017-01-28T03:35:49.103Z,0
2017-01-28T03:36:58.161Z,0
2017-01-28T03:38:08.605Z,0
2017-01-28T03:39:17.910Z,0
2017-01-28T03:40:29.216Z,0
2017-01-28T03:41:38.361Z,0
2017-01-28T03:42:47.515Z,0
2017-01-28T03:43:58.480Z,0
2017-01-28T03:45:09.190Z,0
2017-01-28T03:46:18.317Z,0
2017-01-28T03:47:30.162Z,0
2017-01-28T03:48:39.637Z,0
2017-01-28T03:49:50.077Z,0
2017-01-28T03:50:59.403Z,0
2017-01-28T03:52:08.465Z,0
2017-01-28T03:53:18.913Z,0
2017-01-28T03:54:28.406Z,0
2017-01-28T03:55:37.876Z,0
2017-01-28T03:56:47.234Z,0
2017-01-28T03:57:57.682Z,0
2017-01-28T03:59:07.684Z,0
2017-01-28T04:00:17.164Z,0
2017-01-28T04:01:27.623Z,0
2017-01-28T04:02:38.721Z,0
2017-01-28T04:03:49.183Z,0
2017-01-28T04:04:58.304Z,0
2017-01-28T04:06:09.196Z,0
2017-01-28T04:07:19.173Z,0
2017-01-28T04:08:28.919Z,0
2017-01-28T04:09:39.781Z,0
2017-01-28T04:10:51.598Z,0
2017-01-28T04:12:02.501Z,0
2017-01-28T04:13:12.015Z,0
2017-01-28T04:14:21.740Z,0
2017-01-28T04:15:33.552Z,0
2017-01-28T04:16:42.649Z,0
2017-01-28T04:17:51.725Z,0
2017-01-28T04:19:01.256Z,0
2017-01-28T04:20:11.978Z,0
2017-01-28T04:21:21.095Z,0
2017-01-28T04:22:30.626Z,0
2017-01-28T04:23:41.177Z,0
2017-01-28T04:24:54.478Z,0
2017-01-28T04:26:07.442Z,0
2017-01-28T04:27:16.523Z,0
2017-01-28T04:28:26.987Z,0
2017-01-28T04:29:36.077Z,0
2017-01-28T04:30:46.967Z,0
2017-01-28T04:31:57.711Z,0
2017-01-28T04:33:08.989Z,0
2017-01-28T04:34:22.174Z,0
2017-01-28T04:35:31.673Z,0
2017-01-28T04:36:41.196Z,0
2017-01-28T04:37:50.554Z,0
2017-01-28T04:38:59.659Z,0
2017-01-28T04:40:10.101Z,0
2017-01-28T04:41:19.163Z,0
2017-01-28T04:42:28.635Z,0
2017-01-28T04:43:38.354Z,0
2017-01-28T04:44:48.767Z,0
2017-01-28T04:45:59.248Z,0
2017-01-28T04:47:09.743Z,0
2017-01-28T04:48:20.024Z,0
2017-01-28T04:49:29.381Z,0
2017-01-28T04:50:39.822Z,0
2017-01-28T04:51:51.702Z,0
2017-01-28T04:53:00.793Z,0
2017-01-28T04:54:10.332Z,0
2017-01-28T04:55:19.748Z,0
2017-01-28T04:56:28.889Z,0
2017-01-28T04:57:37.971Z,0
2017-01-28T04:58:47.110Z,0
2017-01-28T04:59:56.204Z,0
2017-01-28T05:01:05.531Z,0
2017-01-28T05:02:14.631Z,0
2017-01-28T05:03:25.075Z,0
2017-01-28T05:04:34.233Z,0
2017-01-28T05:05:45.157Z,0
2017-01-28T05:06:55.880Z,0
2017-01-28T05:08:05.019Z,0
2017-01-28T05:09:15.500Z,0
2017-01-28T05:10:27.743Z,0
2017-01-28T05:11:36.806Z,0
2017-01-28T05:12:48.951Z,0
2017-01-28T05:13:59.438Z,0
2017-01-28T05:15:09.004Z,0
2017-01-28T05:16:18.116Z,0
2017-01-28T05:17:28.608Z,0
2017-01-28T05:18:41.122Z,0
2017-01-28T05:19:52.034Z,0
2017-01-28T05:21:01.080Z,0
2017-01-28T05:22:10.209Z,0
2017-01-28T05:23:20.691Z,0
2017-01-28T05:24:31.408Z,0
2017-01-28T05:25:40.495Z,0
2017-01-28T05:26:50.229Z,0
2017-01-28T05:28:01.174Z,0
2017-01-28T05:29:10.231Z,0
2017-01-28T05:30:20.443Z,0
2017-01-28T05:31:29.956Z,0
2017-01-28T05:32:39.086Z,0
2017-01-28T05:33:49.513Z,0
2017-01-28T05:34:58.700Z,0
2017-01-28T05:36:08.006Z,0
2017-01-28T05:37:17.243Z,0
2017-01-28T05:38:29.140Z,0
2017-01-28T05:39:39.617Z,0
2017-01-28T05:40:50.133Z,0
2017-01-28T05:41:59.928Z,0
2017-01-28T05:43:09.033Z,0
2017-01-28T05:44:18.124Z,0
2017-01-28T05:45:27.607Z,0
2017-01-28T05:46:38.027Z,0
2017-01-28T05:47:47.402Z,0
2017-01-28T05:48:58.340Z,0
2017-01-28T05:50:10.284Z,0
2017-01-28T05:51:21.248Z,0
2017-01-28T05:52:30.347Z,0
2017-01-28T05:53:39.711Z,0
2017-01-28T05:54:50.146Z,0
2017-01-28T05:56:00.611Z,0
2017-01-28T05:57:11.040Z,0
2017-01-28T05:58:21.533Z,0
2017-01-28T05:59:32.693Z,0
2017-01-28T06:00:42.170Z,0
2017-01-28T06:01:52.606Z,0
2017-01-28T06:03:03.027Z,0
2017-01-28T06:04:12.171Z,0
2017-01-28T06:05:22.360Z,0
2017-01-28T06:06:31.833Z,0
2017-01-28T06:07:41.772Z,0
2017-01-28T06:08:53.766Z,0
2017-01-28T06:10:04.686Z,0
2017-01-28T06:11:14.444Z,0
2017-01-28T06:12:25.342Z,0
2017-01-28T06:13:35.647Z,0
2017-01-28T06:14:44.716Z,0
2017-01-28T06:15:56.582Z,0
2017-01-28T06:17:05.891Z,0
2017-01-28T06:18:16.314Z,0
2017-01-28T06:19:25.356Z,0
2017-01-28T06:20:34.452Z,4
2017-01-28T06:21:43.920Z,0
2017-01-28T06:22:54.652Z,0
2017-01-28T06:24:04.102Z,4
2017-01-28T06:25:14.557Z,4
2017-01-28T06:26:25.011Z,4
2017-01-28T06:27:34.085Z,4
2017-01-28T06:28:44.813Z,8
2017-01-28T06:29:54.345Z,8
2017-01-28T06:31:04.774Z,8
2017-01-28T06:32:15.628Z,8
2017-01-28T06:33:26.089Z,12
2017-01-28T06:34:35.449Z,16
2017-01-28T06:35:44.518Z,16
2017-01-28T06:36:54.943Z,20
2017-01-28T06:38:04.000Z,24
2017-01-28T06:39:13.072Z,32
2017-01-28T06:40:22.880Z,36
2017-01-28T06:41:32.322Z,40
2017-01-28T06:42:41.395Z,48
2017-01-28T06:43:51.843Z,60
2017-01-28T06:45:00.896Z,72
2017-01-28T06:46:10.201Z,84
2017-01-28T06:47:19.686Z,100
2017-01-28T06:48:28.739Z,116
2017-01-28T06:49:39.577Z,136
2017-01-28T06:50:48.659Z,156
2017-01-28T06:51:58.757Z,180
2017-01-28T06:53:09.990Z,204
2017-01-28T06:54:20.537Z,228
2017-01-28T06:55:30.034Z,260
2017-01-28T06:56:39.100Z,288
2017-01-28T06:57:48.453Z,320
2017-01-28T06:58:57.517Z,352
2017-01-28T07:00:07.023Z,384
2017-01-28T07:01:17.472Z,420
2017-01-28T07:02:27.917Z,456
2017-01-28T07:03:37.242Z,496
2017-01-28T07:04:46.294Z,536
2017-01-28T07:05:55.750Z,580
2017-01-28T07:07:05.255Z,632
2017-01-28T07:08:14.328Z,684
2017-01-28T07:09:24.089Z,740
2017-01-28T07:10:34.556Z,796
2017-01-28T07:11:45.407Z,852
2017-01-28T07:12:54.479Z,916
2017-01-28T07:14:03.584Z,972
2017-01-28T07:15:12.918Z,1036
2017-01-28T07:16:23.395Z,1104
2017-01-28T07:17:33.840Z,1172
2017-01-28T07:18:43.317Z,1236
2017-01-28T07:19:52.379Z,1308
2017-01-28T07:21:01.727Z,1380
2017-01-28T07:22:10.780Z,1452
2017-01-28T07:23:20.396Z,1532
2017-01-28T07:24:29.455Z,1608
2017-01-28T07:25:38.947Z,1688
2017-01-28T07:26:48.342Z,1764
2017-01-28T07:27:57.407Z,1848
2017-01-28T07:29:06.483Z,1924
2017-01-28T07:30:15.961Z,2012
2017-01-28T07:31:25.076Z,2100
2017-01-28T07:32:34.390Z,2188
2017-01-28T07:33:44.841Z,2288
2017-01-28T07:34:54.284Z,2380
2017-01-28T07:36:03.355Z,2472
2017-01-28T07:37:12.504Z,2568
2017-01-28T07:38:23.039Z,2668
2017-01-28T07:39:32.274Z,2768
2017-01-28T07:40:41.352Z,2872
2017-01-28T07:41:50.804Z,2968
2017-01-28T07:43:01.244Z,3092
2017-01-28T07:44:10.662Z,3184
2017-01-28T07:45:19.754Z,3308
2017-01-28T07:46:28.826Z,3428
2017-01-28T07:47:38.327Z,3548
2017-01-28T07:48:47.530Z,3668
2017-01-28T07:49:56.890Z,3776
2017-01-28T07:51:07.340Z,3904
2017-01-28T07:52:16.400Z,4036
2017-01-28T07:53:25.933Z,4156
2017-01-28T07:54:36.460Z,4264
2017-01-28T07:55:47.157Z,4364
2017-01-28T07:56:57.590Z,4556
2017-01-28T07:58:06.674Z,4736
2017-01-28T07:59:16.128Z,4900
2017-01-28T08:00:25.192Z,5072
2017-01-28T08:01:34.576Z,5304
2017-01-28T08:02:43.737Z,5612
2017-01-28T08:03:54.978Z,6000
2017-01-28T08:05:05.284Z,6428
2017-01-28T08:06:16.109Z,7036
2017-01-28T08:07:28.563Z,7560
2017-01-28T08:08:40.774Z,8068
2017-01-28T08:09:52.976Z,8472
2017-01-28T08:11:03.849Z,8712
2017-01-28T08:12:16.002Z,8924
2017-01-28T08:13:27.536Z,8932
2017-01-28T08:14:38.386Z,8964
2017-01-28T08:15:51.959Z,8708
2017-01-28T08:17:03.574Z,9532
2017-01-28T08:18:14.403Z,9916
2017-01-28T08:19:28.652Z,10524
2017-01-28T08:20:40.312Z,10832
2017-01-28T08:21:51.520Z,11248
2017-01-28T08:23:02.733Z,11156
2017-01-28T08:24:13.555Z,11448
2017-01-28T08:25:26.428Z,11832
2017-01-28T08:26:38.686Z,12148
2017-01-28T08:27:49.567Z,12304
2017-01-28T08:28:59.491Z,12256
2017-01-28T08:30:10.332Z,12864
2017-01-28T08:31:21.288Z,12608
2017-01-28T08:32:32.524Z,13312
2017-01-28T08:33:44.723Z,13760
2017-01-28T08:34:55.531Z,14400
2017-01-28T08:36:06.393Z,14464
2017-01-28T08:37:17.516Z,14272
2017-01-28T08:38:29.725Z,14496
2017-01-28T08:39:40.989Z,14976
2017-01-28T08:40:52.255Z,15712
2017-01-28T08:42:03.088Z,15680
2017-01-28T08:43:14.610Z,16000
2017-01-28T08:44:25.459Z,16448
2017-01-28T08:45:36.326Z,16704
2017-01-28T08:46:48.512Z,16704
2017-01-28T08:47:59.309Z,17088
2017-01-28T08:49:10.792Z,17248
2017-01-28T08:50:24.839Z,18048
2017-01-28T08:51:37.048Z,19232
2017-01-28T08:52:49.333Z,18656
2017-01-28T08:54:02.497Z,19168
2017-01-28T08:55:13.747Z,20224
2017-01-28T08:56:24.570Z,20384
2017-01-28T09:03:02.696Z,22656
2017-01-28T09:04:13.637Z,22912
2017-01-28T09:05:24.222Z,22880
2017-01-28T09:06:35.212Z,22688
2017-01-28T09:07:44.865Z,23200
2017-01-28T09:08:55.308Z,23104
2017-01-28T09:10:05.903Z,23712
2017-01-28T09:11:16.896Z,24064
2017-01-28T09:12:26.959Z,24544
2017-01-28T09:13:37.561Z,23552
2017-01-28T09:14:48.900Z,24672
2017-01-28T09:15:59.823Z,25952
2017-01-28T09:17:10.407Z,27040
2017-01-28T09:18:21.000Z,27264
2017-01-28T09:19:32.065Z,26880
2017-01-28T09:20:42.899Z,26464
2017-01-28T09:21:52.975Z,27072
2017-01-28T09:23:03.514Z,26368
2017-01-28T09:24:14.491Z,26752
2017-01-28T09:25:25.449Z,27936
2017-01-28T09:26:36.313Z,28992
2017-01-28T09:27:47.398Z,29088
2017-01-28T09:28:57.990Z,27936
2017-01-28T09:30:09.002Z,27904
2017-01-28T09:31:19.549Z,28736
2017-01-28T09:32:30.773Z,29280
2017-01-28T09:33:40.919Z,29504
2017-01-28T09:34:51.957Z,26848
2017-01-28T09:36:02.597Z,27776
2017-01-28T09:37:13.577Z,29792
2017-01-28T09:38:24.961Z,28736
2017-01-28T09:39:35.482Z,29440
2017-01-28T09:40:46.471Z,29728
2017-01-28T09:41:57.016Z,30144
2017-01-28T09:43:07.560Z,29728
2017-01-28T09:44:18.952Z,28128
2017-01-28T09:45:29.510Z,30048
2017-01-28T09:46:40.111Z,30816
2017-01-28T09:47:51.055Z,33088
2017-01-28T09:49:01.740Z,31936
2017-01-28T09:50:12.922Z,32352
2017-01-28T09:50:43.063Z,34528
2017-01-28T09:51:53.323Z,36736
2017-01-28T09:53:04.395Z,36160
2017-01-28T09:54:15.446Z,37152
2017-01-28T09:55:25.804Z,34304
2017-01-28T09:56:36.424Z,35936
2017-01-28T09:57:47.082Z,33312
2017-01-28T09:58:58.087Z,34240
2017-01-28T10:00:09.114Z,35104
2017-01-28T10:01:19.977Z,36288
2017-01-28T10:02:30.754Z,40544
2017-01-28T10:03:41.369Z,40224
2017-01-28T10:04:51.851Z,39360
2017-01-28T10:06:02.889Z,35008
2017-01-28T10:07:14.186Z,37504
2017-01-28T10:08:24.474Z,37248
2017-01-28T10:09:35.455Z,40096
2017-01-28T10:10:46.485Z,40448
2017-01-28T10:11:57.486Z,42368
2017-01-28T10:13:08.384Z,42304
2017-01-28T10:14:19.065Z,41664
2017-01-28T10:15:29.741Z,37984
2017-01-28T10:16:40.383Z,40960
2017-01-28T10:17:51.000Z,38656
2017-01-28T10:19:01.911Z,39968
2017-01-28T10:20:12.291Z,44704
2017-01-28T10:21:22.748Z,42944
2017-01-28T10:22:32.647Z,46272
2017-01-28T10:23:42.548Z,36736
2017-01-28T10:24:53.085Z,41568
2017-01-28T10:26:02.966Z,40128
2017-01-28T10:27:13.309Z,38496
2017-01-28T10:28:23.208Z,37056
2017-01-28T10:29:33.638Z,38080
2017-01-28T10:30:44.166Z,42848
2017-01-28T10:31:54.190Z,41184
2017-01-28T10:33:04.074Z,44800
2017-01-28T10:34:13.997Z,41856
2017-01-28T10:35:23.886Z,41824
2017-01-28T10:36:33.675Z,42496
2017-01-28T10:37:43.585Z,45696
2017-01-28T10:38:53.864Z,45056
2017-01-28T10:40:04.221Z,44608
2017-01-28T10:41:14.518Z,47296
2017-01-28T10:42:25.137Z,44416
2017-01-28T10:43:35.453Z,43136
2017-01-28T10:44:45.390Z,46560
2017-01-28T10:45:55.705Z,47200
2017-01-28T10:47:06.064Z,47744
2017-01-28T10:48:16.602Z,46976
2017-01-28T10:49:26.909Z,45408
2017-01-28T10:50:37.212Z,45184
2017-01-28T10:51:47.072Z,47328
2017-01-28T10:52:57.358Z,43456
2017-01-28T10:54:07.973Z,51488
2017-01-28T10:55:17.428Z,52352
2017-01-28T10:56:27.775Z,49696
2017-01-28T10:57:38.111Z,47936
2017-01-28T10:58:48.450Z,41216
2017-01-28T10:59:58.988Z,48160
2017-01-28T11:01:09.332Z,49952
2017-01-28T11:02:19.626Z,46880
2017-01-28T11:03:29.958Z,49152
2017-01-28T11:04:40.303Z,49536
2017-01-28T11:05:50.474Z,51968
2017-01-28T11:07:00.385Z,52768
2017-01-28T11:08:10.696Z,49952
2017-01-28T11:09:20.992Z,49152
2017-01-28T11:10:31.307Z,47360
2017-01-28T11:11:41.835Z,45024
2017-01-28T11:12:51.734Z,53472
2017-01-28T11:14:02.082Z,52224
2017-01-28T11:15:12.369Z,48512
2017-01-28T11:16:22.828Z,50528
2017-01-28T11:17:33.355Z,45792
2017-01-28T11:18:43.691Z,43360
2017-01-28T11:19:53.600Z,43168
2017-01-28T11:21:03.501Z,55424
2017-01-28T11:22:13.792Z,51360
2017-01-28T11:23:24.409Z,38144
2017-01-28T11:24:34.743Z,51584
2017-01-28T11:25:44.665Z,54048
2017-01-28T11:26:54.140Z,45056
2017-01-28T11:28:04.460Z,49728
2017-01-28T11:29:14.998Z,46560
2017-01-28T11:30:24.899Z,42272
2017-01-28T11:31:34.824Z,51104
2017-01-28T11:32:45.093Z,50976
2017-01-28T11:33:55.495Z,42144
2017-01-28T11:35:05.856Z,39040
2017-01-28T11:36:15.745Z,41760
2017-01-28T11:37:25.927Z,51712
2017-01-28T11:38:36.231Z,55680
2017-01-28T11:39:46.595Z,44384
2017-01-28T11:40:56.370Z,50720
2017-01-28T11:42:06.734Z,48768
2017-01-28T11:43:17.039Z,42880
2017-01-28T11:44:26.947Z,53152
2017-01-28T11:45:36.831Z,51648
2017-01-28T11:46:47.040Z,52160
2017-01-28T11:47:57.337Z,44064
2017-01-28T11:49:07.626Z,38016
2017-01-28T11:50:17.952Z,42016
2017-01-28T11:51:27.890Z,45632
2017-01-28T11:52:38.432Z,46176
2017-01-28T11:53:48.351Z,46816
2017-01-28T11:54:58.649Z,50048
2017-01-28T11:56:08.527Z,49888
2017-01-28T11:57:18.422Z,46080
2017-01-28T11:58:29.008Z,40000
2017-01-28T11:59:39.272Z,35968
2017-01-28T12:00:49.578Z,35776
2017-01-28T12:01:59.948Z,37632
2017-01-28T12:03:09.886Z,35744
2017-01-28T12:04:20.441Z,34272
2017-01-28T12:05:30.417Z,34624
2017-01-28T12:06:40.699Z,34432
2017-01-28T12:07:51.010Z,33248
2017-01-28T12:09:01.285Z,35936
2017-01-28T12:10:11.455Z,41856
2017-01-28T12:11:21.946Z,42208
2017-01-28T12:12:31.874Z,41728
2017-01-28T12:13:42.187Z,41408
2017-01-28T12:14:52.572Z,42560
2017-01-28T12:16:03.100Z,39840
2017-01-28T12:17:13.409Z,32672
2017-01-28T12:18:23.727Z,42624
2017-01-28T12:19:33.621Z,50368
2017-01-28T12:20:43.555Z,39456
2017-01-28T12:21:54.129Z,40832
2017-01-28T12:23:04.425Z,46656
2017-01-28T12:24:14.737Z,44192
2017-01-28T12:25:25.082Z,43904
2017-01-28T12:26:35.001Z,47072
2017-01-28T12:27:45.544Z,48416
2017-01-28T12:28:55.863Z,44768
2017-01-28T12:30:06.229Z,42016
2017-01-28T12:31:16.114Z,39040
2017-01-28T12:32:26.504Z,40864
2017-01-28T12:33:36.641Z,48256
2017-01-28T12:34:46.705Z,41664
2017-01-28T12:35:57.012Z,41600
2017-01-28T12:37:07.678Z,38784
2017-01-28T12:38:17.983Z,35072
2017-01-28T12:39:27.453Z,36480
2017-01-28T12:40:37.772Z,38176
2017-01-28T12:41:48.124Z,42912
2017-01-28T12:43:00.321Z,44224
2017-01-28T12:44:10.201Z,42720
2017-01-28T12:45:20.137Z,42624
2017-01-28T12:46:30.447Z,42080
2017-01-28T12:47:40.361Z,40544
2017-01-28T12:48:50.946Z,27744
2017-01-28T12:50:01.228Z,17280
2017-01-28T12:51:11.158Z,15408
2017-01-28T12:52:21.037Z,14400
2017-01-28T12:53:30.617Z,14144
2017-01-28T12:54:41.209Z,13988
2017-01-28T12:55:51.520Z,14512
2017-01-28T12:57:01.852Z,22912
2017-01-28T12:58:11.759Z,37056
2017-01-28T12:59:22.080Z,34304
2017-01-28T13:00:32.728Z,34848
2017-01-28T13:01:42.660Z,36704
2017-01-28T13:02:52.603Z,39488
2017-01-28T13:04:02.993Z,40480
2017-01-28T13:05:13.322Z,40032
2017-01-28T13:06:23.222Z,34816
2017-01-28T13:07:32.755Z,33344
2017-01-28T13:08:42.685Z,40320
2017-01-28T13:09:53.120Z,35232
2017-01-28T13:11:03.144Z,34464
2017-01-28T13:12:13.721Z,38112
2017-01-28T13:13:23.650Z,30688
2017-01-28T13:14:33.973Z,25024
2017-01-28T13:15:43.454Z,20448
2017-01-28T13:16:53.354Z,17024
2017-01-28T13:18:03.136Z,14816
2017-01-28T13:19:13.484Z,13572
2017-01-28T13:20:23.371Z,13152
2017-01-28T13:21:32.888Z,12752
2017-01-28T13:22:42.825Z,12244
2017-01-28T13:23:53.557Z,12048
2017-01-28T13:25:03.874Z,11792
2017-01-28T13:26:14.175Z,11588
2017-01-28T13:27:24.693Z,11536
2017-01-28T13:28:35.012Z,11580
2017-01-28T13:29:45.593Z,11540
2017-01-28T13:30:55.561Z,11396
2017-01-28T13:32:06.151Z,11364
2017-01-28T13:33:16.129Z,11332
2017-01-28T13:34:26.451Z,11320
2017-01-28T13:35:36.642Z,11156
2017-01-28T13:36:46.649Z,11016
2017-01-28T13:37:56.978Z,10912
2017-01-28T13:39:06.910Z,10852
2017-01-28T13:40:17.341Z,10832
2017-01-28T13:41:27.119Z,10820
2017-01-28T13:42:37.449Z,10752
2017-01-28T13:43:47.748Z,10680
2017-01-28T13:44:58.024Z,10604
2017-01-28T13:46:08.311Z,10408
2017-01-28T13:47:18.571Z,10256
2017-01-28T13:48:28.902Z,10092
2017-01-28T13:49:39.209Z,9924
2017-01-28T13:50:49.187Z,9776
2017-01-28T13:51:59.575Z,9696
2017-01-28T13:53:10.148Z,9596
2017-01-28T13:54:20.453Z,9456
2017-01-28T13:55:29.954Z,9384
2017-01-28T13:56:39.951Z,9316
2017-01-28T13:57:50.276Z,9220
2017-01-28T13:59:00.486Z,9152
2017-01-28T14:00:10.795Z,9044
2017-01-28T14:01:20.679Z,8984
2017-01-28T14:02:30.565Z,8928
2017-01-28T14:03:40.897Z,8728
2017-01-28T14:04:51.495Z,8524
2017-01-28T14:06:01.933Z,8420
2017-01-28T14:07:12.263Z,8312
2017-01-28T14:08:22.139Z,8208
2017-01-28T14:09:32.132Z,8124
2017-01-28T14:10:42.693Z,8040
2017-01-28T14:11:53.051Z,7952
2017-01-28T14:13:03.645Z,7872
2017-01-28T14:14:13.514Z,7756
2017-01-28T14:15:23.846Z,7640
2017-01-28T14:16:34.506Z,7560
2017-01-28T14:17:44.865Z,7436
2017-01-28T14:18:55.175Z,7328
2017-01-28T14:20:05.517Z,7204
2017-01-28T14:21:15.867Z,7176
2017-01-28T14:22:26.396Z,7112
2017-01-28T14:23:36.838Z,6992
2017-01-28T14:24:47.320Z,6772
2017-01-28T14:26:01.777Z,6676
2017-01-28T14:27:18.946Z,6608
2017-01-28T14:28:32.047Z,6464
2017-01-28T14:29:43.554Z,6236
2017-01-28T14:30:55.068Z,6084
2017-01-28T14:32:07.256Z,6008
2017-01-28T14:33:19.008Z,5996
2017-01-28T14:34:29.306Z,5976
2017-01-28T14:35:39.764Z,5936
2017-01-28T14:36:49.804Z,5848
2017-01-28T14:38:00.205Z,5716
2017-01-28T14:39:10.765Z,5628
2017-01-28T14:40:20.690Z,5472
2017-01-28T14:41:30.583Z,5316
2017-01-28T14:42:40.484Z,5324
2017-01-28T14:43:50.876Z,5276
2017-01-28T14:45:01.540Z,5188
2017-01-28T14:46:11.936Z,5112
2017-01-28T14:47:22.292Z,5024
2017-01-28T14:48:32.189Z,4924
2017-01-28T14:49:42.495Z,4832
2017-01-28T14:50:52.751Z,4764
2017-01-28T14:52:03.049Z,4700
2017-01-28T14:53:13.538Z,4632
2017-01-28T14:54:23.902Z,4516
2017-01-28T14:55:33.792Z,4400
2017-01-28T14:56:44.336Z,4340
2017-01-28T14:57:54.219Z,4120
2017-01-28T14:59:04.561Z,3516
2017-01-28T15:00:14.879Z,3360
2017-01-28T15:01:24.774Z,3500
2017-01-28T15:02:35.357Z,3456
2017-01-28T15:03:45.697Z,3420
2017-01-28T15:04:56.117Z,3348
2017-01-28T15:06:06.515Z,3272
2017-01-28T15:07:16.859Z,3152
2017-01-28T15:08:27.473Z,3024
2017-01-28T15:09:37.348Z,2936
2017-01-28T15:10:47.275Z,2808
2017-01-28T15:11:57.629Z,2592
2017-01-28T15:13:07.535Z,2364
2017-01-28T15:14:18.215Z,2176
2017-01-28T15:15:28.498Z,2088
2017-01-28T15:16:38.849Z,2048
2017-01-28T15:17:49.165Z,1984
2017-01-28T15:18:59.554Z,1880
2017-01-28T15:20:09.718Z,1760
2017-01-28T15:21:20.087Z,1644
2017-01-28T15:22:30.032Z,1540
2017-01-28T15:23:40.332Z,1456
2017-01-28T15:24:50.614Z,1380
2017-01-28T15:26:00.834Z,1312
2017-01-28T15:27:10.727Z,1240
2017-01-28T15:28:20.658Z,1184
2017-01-28T15:29:30.546Z,1136
2017-01-28T15:31:12.941Z,1060
2017-01-28T15:32:23.257Z,1004
2017-01-28T15:33:33.547Z,972
2017-01-28T15:34:43.413Z,940
2017-01-28T15:35:53.766Z,892
2017-01-28T15:37:04.352Z,824
2017-01-28T15:38:14.399Z,768
2017-01-28T15:39:24.752Z,720
2017-01-28T15:40:35.050Z,676
2017-01-28T15:41:45.327Z,632
2017-01-28T15:42:55.476Z,596
2017-01-28T15:44:05.855Z,556
2017-01-28T15:45:16.505Z,524
2017-01-28T15:46:26.388Z,492
2017-01-28T15:47:36.696Z,456
2017-01-28T15:48:47.254Z,420
2017-01-28T15:49:57.633Z,392
2017-01-28T15:51:07.564Z,356
2017-01-28T15:52:49.655Z,312
2017-01-28T15:54:00.241Z,284
2017-01-28T15:55:10.553Z,260
2017-01-28T15:56:20.827Z,236
2017-01-28T15:57:30.536Z,212
2017-01-28T15:58:40.602Z,192
2017-01-28T15:59:51.158Z,168
2017-01-28T16:01:01.461Z,152
2017-01-28T16:02:11.799Z,132
2017-01-28T16:03:22.096Z,116
2017-01-28T16:04:31.563Z,100
2017-01-28T16:05:42.147Z,88
2017-01-28T16:06:52.499Z,76
2017-01-28T16:08:02.951Z,64
2017-01-28T16:09:12.830Z,56
2017-01-28T16:10:22.756Z,48
2017-01-28T16:11:33.291Z,40
2017-01-28T16:12:43.468Z,36